sensor_id;sensor_type;location;lat;lon;timestamp;P1;durP1;ratioP1;P2;durP2;ratioP2
64842;SDS011;51310;52.198;5.422;2023-03-08T00:01:11;5.10;;;2.03;;
64842;SDS011;51310;52.198;5.422;2023-03-08T00:03:39;7.72;;;2.38;;
64842;SDS011;51310;52.198;5.422;2023-03-08T00:06:06;10.70;;;2.70;;
64842;SDS011;51310;52.198;5.422;2023-03-08T00:08:35;6.50;;;2.33;;
64842;SDS011;51310;52.198;5.422;2023-03-08T00:11:04;4.03;;;2.03;;
64842;SDS011;51310;52.198;5.422;2023-03-08T00:13:32;7.13;;;2.45;;
64842;SDS011;51310;52.198;5.422;2023-03-08T00:16:00;5.57;;;1.70;;
64842;SDS011;51310;52.198;5.422;2023-03-08T00:18:27;4.60;;;1.75;;
64842;SDS011;51310;52.198;5.422;2023-03-08T00:20:57;4.53;;;2.05;;
64842;SDS011;51310;52.198;5.422;2023-03-08T00:23:31;5.05;;;1.88;;
64842;SDS011;51310;52.198;5.422;2023-03-08T00:25:57;4.80;;;2.00;;
64842;SDS011;51310;52.198;5.422;2023-03-08T00:28:23;4.00;;;2.10;;
64842;SDS011;51310;52.198;5.422;2023-03-08T00:30:59;4.50;;;1.75;;
64842;SDS011;51310;52.198;5.422;2023-03-08T00:33:31;6.05;;;2.10;;
64842;SDS011;51310;52.198;5.422;2023-03-08T00:38:32;4.70;;;2.00;;
64842;SDS011;51310;52.198;5.422;2023-03-08T00:41:01;6.38;;;1.70;;
64842;SDS011;51310;52.198;5.422;2023-03-08T00:43:27;4.22;;;1.60;;
64842;SDS011;51310;52.198;5.422;2023-03-08T00:45:54;4.05;;;1.60;;
64842;SDS011;51310;52.198;5.422;2023-03-08T00:48:20;5.03;;;1.83;;
64842;SDS011;51310;52.198;5.422;2023-03-08T00:50:47;4.20;;;1.90;;
64842;SDS011;51310;52.198;5.422;2023-03-08T00:53:13;3.95;;;1.65;;
64842;SDS011;51310;52.198;5.422;2023-03-08T00:55:47;6.72;;;2.05;;
64842;SDS011;51310;52.198;5.422;2023-03-08T00:58:24;4.20;;;1.95;;
64842;SDS011;51310;52.198;5.422;2023-03-08T01:00:53;5.45;;;1.95;;
64842;SDS011;51310;52.198;5.422;2023-03-08T01:03:19;4.63;;;1.70;;
64842;SDS011;51310;52.198;5.422;2023-03-08T01:05:47;8.90;;;2.35;;
64842;SDS011;51310;52.198;5.422;2023-03-08T01:08:16;4.75;;;1.95;;
64842;SDS011;51310;52.198;5.422;2023-03-08T01:13:21;3.13;;;1.55;;
64842;SDS011;51310;52.198;5.422;2023-03-08T01:15:49;4.05;;;1.70;;
64842;SDS011;51310;52.198;5.422;2023-03-08T01:18:15;3.65;;;1.90;;
64842;SDS011;51310;52.198;5.422;2023-03-08T01:20:41;4.50;;;1.90;;
64842;SDS011;51310;52.198;5.422;2023-03-08T01:23:07;3.25;;;1.48;;
64842;SDS011;51310;52.198;5.422;2023-03-08T01:25:33;4.22;;;1.55;;
64842;SDS011;51310;52.198;5.422;2023-03-08T01:27:59;4.28;;;1.85;;
64842;SDS011;51310;52.198;5.422;2023-03-08T01:30:25;4.03;;;1.87;;
64842;SDS011;51310;52.198;5.422;2023-03-08T01:32:52;3.83;;;1.65;;
64842;SDS011;51310;52.198;5.422;2023-03-08T01:35:18;6.60;;;1.98;;
64842;SDS011;51310;52.198;5.422;2023-03-08T01:37:44;3.53;;;1.50;;
64842;SDS011;51310;52.198;5.422;2023-03-08T01:40:10;3.28;;;2.00;;
64842;SDS011;51310;52.198;5.422;2023-03-08T01:42:40;3.80;;;1.80;;
64842;SDS011;51310;52.198;5.422;2023-03-08T01:45:52;5.78;;;1.80;;
64842;SDS011;51310;52.198;5.422;2023-03-08T01:48:41;4.68;;;1.98;;
64842;SDS011;51310;52.198;5.422;2023-03-08T01:54:11;3.42;;;1.85;;
64842;SDS011;51310;52.198;5.422;2023-03-08T01:56:43;4.68;;;2.25;;
64842;SDS011;51310;52.198;5.422;2023-03-08T01:59:13;5.85;;;2.50;;
64842;SDS011;51310;52.198;5.422;2023-03-08T02:01:39;3.60;;;2.13;;
64842;SDS011;51310;52.198;5.422;2023-03-08T02:04:06;6.22;;;2.35;;
64842;SDS011;51310;52.198;5.422;2023-03-08T02:06:33;4.10;;;2.40;;
64842;SDS011;51310;52.198;5.422;2023-03-08T02:08:59;4.38;;;2.35;;
64842;SDS011;51310;52.198;5.422;2023-03-08T02:11:28;3.80;;;1.80;;
64842;SDS011;51310;52.198;5.422;2023-03-08T02:13:57;5.38;;;2.28;;
64842;SDS011;51310;52.198;5.422;2023-03-08T02:16:24;4.30;;;2.17;;
64842;SDS011;51310;52.198;5.422;2023-03-08T02:18:51;2.90;;;2.00;;
64842;SDS011;51310;52.198;5.422;2023-03-08T02:21:30;4.97;;;2.35;;
64842;SDS011;51310;52.198;5.422;2023-03-08T02:24:01;5.53;;;2.65;;
64842;SDS011;51310;52.198;5.422;2023-03-08T02:26:41;3.75;;;2.20;;
64842;SDS011;51310;52.198;5.422;2023-03-08T02:29:07;6.20;;;2.90;;
64842;SDS011;51310;52.198;5.422;2023-03-08T02:31:33;8.55;;;3.15;;
64842;SDS011;51310;52.198;5.422;2023-03-08T02:33:58;9.73;;;3.43;;
64842;SDS011;51310;52.198;5.422;2023-03-08T02:36:24;7.10;;;3.83;;
64842;SDS011;51310;52.198;5.422;2023-03-08T02:38:50;9.98;;;3.72;;
64842;SDS011;51310;52.198;5.422;2023-03-08T02:41:15;8.17;;;4.00;;
64842;SDS011;51310;52.198;5.422;2023-03-08T02:43:41;6.57;;;4.00;;
64842;SDS011;51310;52.198;5.422;2023-03-08T02:46:09;7.87;;;3.80;;
64842;SDS011;51310;52.198;5.422;2023-03-08T02:48:38;8.15;;;4.05;;
64842;SDS011;51310;52.198;5.422;2023-03-08T02:51:04;9.75;;;3.92;;
64842;SDS011;51310;52.198;5.422;2023-03-08T02:53:30;9.93;;;4.63;;
64842;SDS011;51310;52.198;5.422;2023-03-08T02:55:56;8.10;;;5.00;;
64842;SDS011;51310;52.198;5.422;2023-03-08T02:58:21;7.17;;;4.27;;
64842;SDS011;51310;52.198;5.422;2023-03-08T03:00:47;9.43;;;5.20;;
64842;SDS011;51310;52.198;5.422;2023-03-08T03:03:13;11.20;;;5.57;;
64842;SDS011;51310;52.198;5.422;2023-03-08T03:05:41;12.20;;;5.63;;
64842;SDS011;51310;52.198;5.422;2023-03-08T03:08:08;10.10;;;5.72;;
64842;SDS011;51310;52.198;5.422;2023-03-08T03:10:36;10.35;;;5.85;;
64842;SDS011;51310;52.198;5.422;2023-03-08T03:13:03;11.02;;;5.97;;
64842;SDS011;51310;52.198;5.422;2023-03-08T03:15:30;8.93;;;6.53;;
64842;SDS011;51310;52.198;5.422;2023-03-08T03:17:56;9.65;;;5.88;;
64842;SDS011;51310;52.198;5.422;2023-03-08T03:20:22;9.23;;;6.07;;
64842;SDS011;51310;52.198;5.422;2023-03-08T03:22:48;9.10;;;6.45;;
64842;SDS011;51310;52.198;5.422;2023-03-08T03:25:14;12.80;;;6.60;;
64842;SDS011;51310;52.198;5.422;2023-03-08T03:27:40;10.17;;;6.10;;
64842;SDS011;51310;52.198;5.422;2023-03-08T03:30:06;9.73;;;6.20;;
64842;SDS011;51310;52.198;5.422;2023-03-08T03:32:33;8.80;;;6.85;;
64842;SDS011;51310;52.198;5.422;2023-03-08T03:34:59;9.00;;;6.82;;
64842;SDS011;51310;52.198;5.422;2023-03-08T03:37:25;12.93;;;6.90;;
64842;SDS011;51310;52.198;5.422;2023-03-08T03:39:51;12.90;;;6.95;;
64842;SDS011;51310;52.198;5.422;2023-03-08T03:42:17;14.07;;;7.53;;
64842;SDS011;51310;52.198;5.422;2023-03-08T03:44:43;11.17;;;6.57;;
64842;SDS011;51310;52.198;5.422;2023-03-08T03:47:09;10.70;;;7.13;;
64842;SDS011;51310;52.198;5.422;2023-03-08T03:49:35;11.25;;;7.32;;
64842;SDS011;51310;52.198;5.422;2023-03-08T03:52:01;12.35;;;7.55;;
64842;SDS011;51310;52.198;5.422;2023-03-08T03:54:27;12.57;;;8.55;;
64842;SDS011;51310;52.198;5.422;2023-03-08T03:56:52;17.73;;;8.88;;
64842;SDS011;51310;52.198;5.422;2023-03-08T03:59:22;16.47;;;9.67;;
64842;SDS011;51310;52.198;5.422;2023-03-08T04:01:49;17.00;;;11.45;;
64842;SDS011;51310;52.198;5.422;2023-03-08T04:04:15;19.67;;;11.88;;
64842;SDS011;51310;52.198;5.422;2023-03-08T04:06:41;16.73;;;11.10;;
64842;SDS011;51310;52.198;5.422;2023-03-08T04:09:09;16.20;;;11.55;;
64842;SDS011;51310;52.198;5.422;2023-03-08T04:11:41;27.63;;;14.00;;
64842;SDS011;51310;52.198;5.422;2023-03-08T04:14:07;24.67;;;14.82;;
64842;SDS011;51310;52.198;5.422;2023-03-08T04:16:34;27.20;;;14.73;;
64842;SDS011;51310;52.198;5.422;2023-03-08T04:19:03;34.95;;;15.75;;
64842;SDS011;51310;52.198;5.422;2023-03-08T04:21:37;30.80;;;15.07;;
64842;SDS011;51310;52.198;5.422;2023-03-08T04:24:03;31.85;;;16.08;;
64842;SDS011;51310;52.198;5.422;2023-03-08T04:26:30;38.13;;;16.38;;
64842;SDS011;51310;52.198;5.422;2023-03-08T04:28:55;39.60;;;17.30;;
64842;SDS011;51310;52.198;5.422;2023-03-08T04:31:22;49.27;;;17.10;;
64842;SDS011;51310;52.198;5.422;2023-03-08T04:33:52;82.43;;;17.60;;
64842;SDS011;51310;52.198;5.422;2023-03-08T04:36:19;93.43;;;18.67;;
64842;SDS011;51310;52.198;5.422;2023-03-08T04:38:46;133.97;;;20.37;;
64842;SDS011;51310;52.198;5.422;2023-03-08T04:41:13;129.80;;;19.60;;
64842;SDS011;51310;52.198;5.422;2023-03-08T04:43:40;120.78;;;19.95;;
64842;SDS011;51310;52.198;5.422;2023-03-08T04:46:19;71.13;;;18.50;;
64842;SDS011;51310;52.198;5.422;2023-03-08T04:48:48;153.40;;;22.20;;
64842;SDS011;51310;52.198;5.422;2023-03-08T04:51:18;103.40;;;20.27;;
64842;SDS011;51310;52.198;5.422;2023-03-08T04:53:44;144.02;;;22.05;;
64842;SDS011;51310;52.198;5.422;2023-03-08T04:56:10;139.05;;;21.48;;
64842;SDS011;51310;52.198;5.422;2023-03-08T04:58:38;108.43;;;21.00;;
64842;SDS011;51310;52.198;5.422;2023-03-08T05:01:23;82.82;;;20.75;;
64842;SDS011;51310;52.198;5.422;2023-03-08T05:03:48;126.57;;;23.25;;
64842;SDS011;51310;52.198;5.422;2023-03-08T05:06:17;140.52;;;22.58;;
64842;SDS011;51310;52.198;5.422;2023-03-08T05:08:44;167.23;;;23.83;;
64842;SDS011;51310;52.198;5.422;2023-03-08T05:11:15;122.07;;;22.88;;
64842;SDS011;51310;52.198;5.422;2023-03-08T05:13:48;140.00;;;22.75;;
64842;SDS011;51310;52.198;5.422;2023-03-08T05:16:14;87.10;;;22.65;;
64842;SDS011;51310;52.198;5.422;2023-03-08T05:18:40;153.73;;;26.98;;
64842;SDS011;51310;52.198;5.422;2023-03-08T05:21:07;109.82;;;24.50;;
64842;SDS011;51310;52.198;5.422;2023-03-08T05:23:38;98.28;;;24.33;;
64842;SDS011;51310;52.198;5.422;2023-03-08T05:26:05;110.88;;;26.50;;
64842;SDS011;51310;52.198;5.422;2023-03-08T05:28:33;77.03;;;22.53;;
64842;SDS011;51310;52.198;5.422;2023-03-08T05:31:06;141.95;;;25.33;;
64842;SDS011;51310;52.198;5.422;2023-03-08T05:33:37;159.70;;;26.95;;
64842;SDS011;51310;52.198;5.422;2023-03-08T05:36:04;169.05;;;26.83;;
64842;SDS011;51310;52.198;5.422;2023-03-08T05:38:31;182.63;;;27.05;;
64842;SDS011;51310;52.198;5.422;2023-03-08T05:40:59;106.40;;;24.23;;
64842;SDS011;51310;52.198;5.422;2023-03-08T05:43:26;63.53;;;24.08;;
64842;SDS011;51310;52.198;5.422;2023-03-08T05:46:05;95.20;;;24.27;;
64842;SDS011;51310;52.198;5.422;2023-03-08T05:48:35;130.50;;;26.45;;
64842;SDS011;51310;52.198;5.422;2023-03-08T05:51:08;125.35;;;26.00;;
64842;SDS011;51310;52.198;5.422;2023-03-08T05:53:39;108.15;;;25.17;;
64842;SDS011;51310;52.198;5.422;2023-03-08T05:56:09;168.07;;;28.17;;
64842;SDS011;51310;52.198;5.422;2023-03-08T05:58:41;139.35;;;28.35;;
64842;SDS011;51310;52.198;5.422;2023-03-08T06:01:14;159.35;;;27.05;;
64842;SDS011;51310;52.198;5.422;2023-03-08T06:03:52;100.35;;;25.92;;
64842;SDS011;51310;52.198;5.422;2023-03-08T06:06:22;148.20;;;27.17;;
64842;SDS011;51310;52.198;5.422;2023-03-08T06:08:50;141.70;;;26.75;;
64842;SDS011;51310;52.198;5.422;2023-03-08T06:11:17;109.47;;;25.98;;
64842;SDS011;51310;52.198;5.422;2023-03-08T06:13:43;158.93;;;27.90;;
64842;SDS011;51310;52.198;5.422;2023-03-08T06:16:09;150.15;;;26.83;;
64842;SDS011;51310;52.198;5.422;2023-03-08T06:18:36;149.13;;;27.92;;
64842;SDS011;51310;52.198;5.422;2023-03-08T06:21:04;140.50;;;26.85;;
64842;SDS011;51310;52.198;5.422;2023-03-08T06:23:33;98.78;;;25.48;;
64842;SDS011;51310;52.198;5.422;2023-03-08T06:26:00;104.68;;;26.35;;
64842;SDS011;51310;52.198;5.422;2023-03-08T06:28:27;93.45;;;24.70;;
64842;SDS011;51310;52.198;5.422;2023-03-08T06:30:54;127.40;;;26.60;;
64842;SDS011;51310;52.198;5.422;2023-03-08T06:33:21;99.60;;;25.52;;
64842;SDS011;51310;52.198;5.422;2023-03-08T06:36:05;98.05;;;26.02;;
64842;SDS011;51310;52.198;5.422;2023-03-08T06:38:43;97.88;;;25.00;;
64842;SDS011;51310;52.198;5.422;2023-03-08T06:41:09;86.65;;;25.55;;
64842;SDS011;51310;52.198;5.422;2023-03-08T06:43:37;82.68;;;26.48;;
64842;SDS011;51310;52.198;5.422;2023-03-08T06:46:07;85.73;;;25.83;;
64842;SDS011;51310;52.198;5.422;2023-03-08T06:48:37;53.47;;;24.17;;
64842;SDS011;51310;52.198;5.422;2023-03-08T06:51:04;50.60;;;24.13;;
64842;SDS011;51310;52.198;5.422;2023-03-08T06:53:30;62.47;;;23.25;;
64842;SDS011;51310;52.198;5.422;2023-03-08T06:55:56;57.70;;;23.80;;
64842;SDS011;51310;52.198;5.422;2023-03-08T06:58:22;48.70;;;24.02;;
64842;SDS011;51310;52.198;5.422;2023-03-08T07:00:47;49.85;;;23.17;;
64842;SDS011;51310;52.198;5.422;2023-03-08T07:03:13;47.63;;;24.05;;
64842;SDS011;51310;52.198;5.422;2023-03-08T07:05:39;46.65;;;24.27;;
64842;SDS011;51310;52.198;5.422;2023-03-08T07:08:06;51.53;;;24.65;;
64842;SDS011;51310;52.198;5.422;2023-03-08T07:10:33;44.42;;;24.25;;
64842;SDS011;51310;52.198;5.422;2023-03-08T07:12:59;49.22;;;23.98;;
64842;SDS011;51310;52.198;5.422;2023-03-08T07:15:25;48.30;;;23.40;;
64842;SDS011;51310;52.198;5.422;2023-03-08T07:17:52;50.55;;;25.02;;
64842;SDS011;51310;52.198;5.422;2023-03-08T07:20:22;46.57;;;23.70;;
64842;SDS011;51310;52.198;5.422;2023-03-08T07:22:49;49.30;;;24.00;;
64842;SDS011;51310;52.198;5.422;2023-03-08T07:25:16;47.38;;;24.70;;
64842;SDS011;51310;52.198;5.422;2023-03-08T07:27:44;56.28;;;25.42;;
64842;SDS011;51310;52.198;5.422;2023-03-08T07:30:11;53.70;;;26.08;;
64842;SDS011;51310;52.198;5.422;2023-03-08T07:32:40;56.40;;;26.80;;
64842;SDS011;51310;52.198;5.422;2023-03-08T07:35:07;56.20;;;26.08;;
64842;SDS011;51310;52.198;5.422;2023-03-08T07:37:35;51.90;;;25.27;;
64842;SDS011;51310;52.198;5.422;2023-03-08T07:40:01;59.30;;;26.60;;
64842;SDS011;51310;52.198;5.422;2023-03-08T07:42:31;59.65;;;26.67;;
64842;SDS011;51310;52.198;5.422;2023-03-08T07:44:57;53.70;;;26.70;;
64842;SDS011;51310;52.198;5.422;2023-03-08T07:47:23;59.80;;;27.92;;
64842;SDS011;51310;52.198;5.422;2023-03-08T07:49:48;59.25;;;27.75;;
64842;SDS011;51310;52.198;5.422;2023-03-08T07:52:14;61.22;;;27.67;;
64842;SDS011;51310;52.198;5.422;2023-03-08T07:54:40;62.40;;;28.20;;
64842;SDS011;51310;52.198;5.422;2023-03-08T07:57:06;64.43;;;27.73;;
64842;SDS011;51310;52.198;5.422;2023-03-08T07:59:34;62.30;;;28.42;;
64842;SDS011;51310;52.198;5.422;2023-03-08T08:02:00;61.47;;;29.98;;
64842;SDS011;51310;52.198;5.422;2023-03-08T08:04:25;58.30;;;27.17;;
64842;SDS011;51310;52.198;5.422;2023-03-08T08:06:51;60.03;;;27.95;;
64842;SDS011;51310;52.198;5.422;2023-03-08T08:09:16;60.97;;;27.33;;
64842;SDS011;51310;52.198;5.422;2023-03-08T08:11:42;60.38;;;27.88;;
64842;SDS011;51310;52.198;5.422;2023-03-08T08:14:08;58.88;;;28.20;;
64842;SDS011;51310;52.198;5.422;2023-03-08T08:16:34;60.90;;;27.17;;
64842;SDS011;51310;52.198;5.422;2023-03-08T08:18:59;57.80;;;28.67;;
64842;SDS011;51310;52.198;5.422;2023-03-08T08:21:25;63.10;;;29.30;;
64842;SDS011;51310;52.198;5.422;2023-03-08T08:23:51;61.43;;;29.90;;
64842;SDS011;51310;52.198;5.422;2023-03-08T08:26:19;62.47;;;30.48;;
64842;SDS011;51310;52.198;5.422;2023-03-08T08:28:47;63.83;;;28.92;;
64842;SDS011;51310;52.198;5.422;2023-03-08T08:31:17;65.13;;;29.70;;
64842;SDS011;51310;52.198;5.422;2023-03-08T08:33:46;62.53;;;30.52;;
64842;SDS011;51310;52.198;5.422;2023-03-08T08:36:13;70.80;;;30.80;;
64842;SDS011;51310;52.198;5.422;2023-03-08T08:38:41;63.20;;;29.63;;
64842;SDS011;51310;52.198;5.422;2023-03-08T08:41:07;64.47;;;29.17;;
64842;SDS011;51310;52.198;5.422;2023-03-08T08:43:34;65.78;;;29.70;;
64842;SDS011;51310;52.198;5.422;2023-03-08T08:46:01;59.15;;;26.83;;
64842;SDS011;51310;52.198;5.422;2023-03-08T08:48:29;62.80;;;27.35;;
64842;SDS011;51310;52.198;5.422;2023-03-08T08:50:57;56.47;;;26.48;;
64842;SDS011;51310;52.198;5.422;2023-03-08T08:53:23;55.67;;;25.70;;
64842;SDS011;51310;52.198;5.422;2023-03-08T08:55:50;63.70;;;27.63;;
64842;SDS011;51310;52.198;5.422;2023-03-08T08:58:16;58.03;;;27.73;;
64842;SDS011;51310;52.198;5.422;2023-03-08T09:00:41;56.92;;;26.42;;
64842;SDS011;51310;52.198;5.422;2023-03-08T09:03:08;54.30;;;26.42;;
64842;SDS011;51310;52.198;5.422;2023-03-08T09:05:36;57.05;;;25.45;;
64842;SDS011;51310;52.198;5.422;2023-03-08T09:08:06;58.60;;;26.83;;
64842;SDS011;51310;52.198;5.422;2023-03-08T09:10:34;58.13;;;26.98;;
64842;SDS011;51310;52.198;5.422;2023-03-08T09:13:03;54.83;;;26.90;;
64842;SDS011;51310;52.198;5.422;2023-03-08T09:15:30;61.70;;;27.80;;
64842;SDS011;51310;52.198;5.422;2023-03-08T09:17:56;60.25;;;26.67;;
64842;SDS011;51310;52.198;5.422;2023-03-08T09:20:22;61.80;;;26.95;;
64842;SDS011;51310;52.198;5.422;2023-03-08T09:22:48;58.03;;;26.17;;
64842;SDS011;51310;52.198;5.422;2023-03-08T09:25:14;54.65;;;26.55;;
64842;SDS011;51310;52.198;5.422;2023-03-08T09:27:40;54.78;;;25.92;;
64842;SDS011;51310;52.198;5.422;2023-03-08T09:30:10;53.33;;;25.52;;
64842;SDS011;51310;52.198;5.422;2023-03-08T09:32:38;52.55;;;25.25;;
64842;SDS011;51310;52.198;5.422;2023-03-08T09:35:04;53.60;;;24.00;;
64842;SDS011;51310;52.198;5.422;2023-03-08T09:37:30;54.35;;;26.27;;
64842;SDS011;51310;52.198;5.422;2023-03-08T09:39:57;60.35;;;25.70;;
64842;SDS011;51310;52.198;5.422;2023-03-08T09:42:26;51.03;;;24.70;;
64842;SDS011;51310;52.198;5.422;2023-03-08T09:45:05;56.93;;;25.57;;
64842;SDS011;51310;52.198;5.422;2023-03-08T09:50:31;56.47;;;25.30;;
64842;SDS011;51310;52.198;5.422;2023-03-08T09:53:30;51.83;;;23.42;;
64842;SDS011;51310;52.198;5.422;2023-03-08T09:56:04;54.05;;;23.98;;
64842;SDS011;51310;52.198;5.422;2023-03-08T09:58:54;52.15;;;25.00;;
64842;SDS011;51310;52.198;5.422;2023-03-08T10:07:55;56.95;;;25.25;;
64842;SDS011;51310;52.198;5.422;2023-03-08T10:10:56;52.00;;;23.08;;
64842;SDS011;51310;52.198;5.422;2023-03-08T10:13:35;50.92;;;24.85;;
64842;SDS011;51310;52.198;5.422;2023-03-08T10:16:28;50.37;;;23.23;;
64842;SDS011;51310;52.198;5.422;2023-03-08T10:19:22;51.08;;;23.02;;
64842;SDS011;51310;52.198;5.422;2023-03-08T10:22:03;46.20;;;22.20;;
64842;SDS011;51310;52.198;5.422;2023-03-08T10:25:31;43.60;;;20.83;;
64842;SDS011;51310;52.198;5.422;2023-03-08T10:27:41;49.72;;;22.15;;
64842;SDS011;51310;52.198;5.422;2023-03-08T10:30:14;46.80;;;22.85;;
64842;SDS011;51310;52.198;5.422;2023-03-08T10:32:44;45.03;;;21.10;;
64842;SDS011;51310;52.198;5.422;2023-03-08T10:35:13;45.97;;;20.88;;
64842;SDS011;51310;52.198;5.422;2023-03-08T10:37:42;45.55;;;21.35;;
64842;SDS011;51310;52.198;5.422;2023-03-08T10:40:16;48.28;;;22.27;;
64842;SDS011;51310;52.198;5.422;2023-03-08T10:42:48;44.63;;;21.77;;
64842;SDS011;51310;52.198;5.422;2023-03-08T10:45:24;42.58;;;19.48;;
64842;SDS011;51310;52.198;5.422;2023-03-08T10:47:52;44.38;;;19.73;;
64842;SDS011;51310;52.198;5.422;2023-03-08T10:50:20;48.67;;;21.50;;
64842;SDS011;51310;52.198;5.422;2023-03-08T10:52:49;42.30;;;21.48;;
64842;SDS011;51310;52.198;5.422;2023-03-08T10:55:25;43.88;;;20.90;;
64842;SDS011;51310;52.198;5.422;2023-03-08T10:57:59;44.10;;;20.17;;
64842;SDS011;51310;52.198;5.422;2023-03-08T11:00:36;42.97;;;20.98;;
64842;SDS011;51310;52.198;5.422;2023-03-08T11:05:34;40.28;;;20.17;;
64842;SDS011;51310;52.198;5.422;2023-03-08T11:08:01;37.97;;;19.33;;
64842;SDS011;51310;52.198;5.422;2023-03-08T11:10:28;39.13;;;18.23;;
64842;SDS011;51310;52.198;5.422;2023-03-08T11:13:09;42.28;;;19.73;;
64842;SDS011;51310;52.198;5.422;2023-03-08T11:16:34;36.83;;;18.80;;
64842;SDS011;51310;52.198;5.422;2023-03-08T11:19:00;41.08;;;18.35;;
64842;SDS011;51310;52.198;5.422;2023-03-08T11:24:22;39.10;;;17.85;;
64842;SDS011;51310;52.198;5.422;2023-03-08T11:30:08;34.40;;;16.13;;
64842;SDS011;51310;52.198;5.422;2023-03-08T11:32:55;33.00;;;16.20;;
64842;SDS011;51310;52.198;5.422;2023-03-08T11:36:01;34.65;;;15.20;;
64842;SDS011;51310;52.198;5.422;2023-03-08T11:38:36;30.30;;;14.65;;
64842;SDS011;51310;52.198;5.422;2023-03-08T11:41:10;27.77;;;14.32;;
64842;SDS011;51310;52.198;5.422;2023-03-08T11:47:27;34.10;;;15.85;;
64842;SDS011;51310;52.198;5.422;2023-03-08T11:50:25;32.78;;;15.73;;
64842;SDS011;51310;52.198;5.422;2023-03-08T11:53:15;35.40;;;17.25;;
64842;SDS011;51310;52.198;5.422;2023-03-08T12:01:21;35.47;;;17.58;;
64842;SDS011;51310;52.198;5.422;2023-03-08T12:03:58;38.60;;;17.35;;
64842;SDS011;51310;52.198;5.422;2023-03-08T12:06:40;33.70;;;15.95;;
64842;SDS011;51310;52.198;5.422;2023-03-08T12:12:05;34.00;;;14.73;;
64842;SDS011;51310;52.198;5.422;2023-03-08T12:14:48;34.40;;;15.40;;
64842;SDS011;51310;52.198;5.422;2023-03-08T12:18:14;31.55;;;14.68;;
64842;SDS011;51310;52.198;5.422;2023-03-08T12:26:47;30.77;;;14.77;;
64842;SDS011;51310;52.198;5.422;2023-03-08T12:29:32;26.63;;;13.40;;
64842;SDS011;51310;52.198;5.422;2023-03-08T12:32:11;32.78;;;15.02;;
64842;SDS011;51310;52.198;5.422;2023-03-08T12:34:39;31.00;;;14.63;;
64842;SDS011;51310;52.198;5.422;2023-03-08T12:40:05;32.78;;;15.43;;
64842;SDS011;51310;52.198;5.422;2023-03-08T12:42:50;31.55;;;16.58;;
64842;SDS011;51310;52.198;5.422;2023-03-08T12:45:27;30.15;;;15.07;;
64842;SDS011;51310;52.198;5.422;2023-03-08T12:47:55;34.40;;;15.82;;
64842;SDS011;51310;52.198;5.422;2023-03-08T12:50:30;32.97;;;15.82;;
64842;SDS011;51310;52.198;5.422;2023-03-08T12:58:53;33.15;;;15.85;;
64842;SDS011;51310;52.198;5.422;2023-03-08T13:02:32;38.40;;;16.55;;
64842;SDS011;51310;52.198;5.422;2023-03-08T13:05:13;35.28;;;16.02;;
64842;SDS011;51310;52.198;5.422;2023-03-08T13:08:01;36.10;;;17.17;;
64842;SDS011;51310;52.198;5.422;2023-03-08T13:18:59;31.67;;;16.20;;
64842;SDS011;51310;52.198;5.422;2023-03-08T13:21:48;33.47;;;17.57;;
64842;SDS011;51310;52.198;5.422;2023-03-08T13:35:53;38.35;;;18.40;;
64842;SDS011;51310;52.198;5.422;2023-03-08T13:38:32;38.78;;;18.63;;
64842;SDS011;51310;52.198;5.422;2023-03-08T13:41:01;37.72;;;18.48;;
64842;SDS011;51310;52.198;5.422;2023-03-08T13:43:31;40.97;;;19.42;;
64842;SDS011;51310;52.198;5.422;2023-03-08T13:45:59;42.97;;;19.25;;
64842;SDS011;51310;52.198;5.422;2023-03-08T13:48:30;41.97;;;20.58;;
64842;SDS011;51310;52.198;5.422;2023-03-08T13:50:59;39.72;;;19.35;;
64842;SDS011;51310;52.198;5.422;2023-03-08T13:53:34;39.13;;;19.38;;
64842;SDS011;51310;52.198;5.422;2023-03-08T13:56:02;37.95;;;18.48;;
64842;SDS011;51310;52.198;5.422;2023-03-08T13:58:37;37.05;;;19.23;;
64842;SDS011;51310;52.198;5.422;2023-03-08T14:03:43;40.03;;;19.17;;
64842;SDS011;51310;52.198;5.422;2023-03-08T14:06:30;38.20;;;18.40;;
64842;SDS011;51310;52.198;5.422;2023-03-08T14:08:59;36.70;;;18.48;;
64842;SDS011;51310;52.198;5.422;2023-03-08T14:11:29;34.07;;;17.00;;
64842;SDS011;51310;52.198;5.422;2023-03-08T14:13:59;35.28;;;16.75;;
64842;SDS011;51310;52.198;5.422;2023-03-08T14:16:30;35.25;;;17.60;;
64842;SDS011;51310;52.198;5.422;2023-03-08T14:19:07;28.38;;;15.90;;
64842;SDS011;51310;52.198;5.422;2023-03-08T14:21:54;36.35;;;15.98;;
64842;SDS011;51310;52.198;5.422;2023-03-08T14:24:25;31.92;;;16.42;;
64842;SDS011;51310;52.198;5.422;2023-03-08T14:27:04;32.75;;;15.82;;
64842;SDS011;51310;52.198;5.422;2023-03-08T14:30:00;33.25;;;17.08;;
64842;SDS011;51310;52.198;5.422;2023-03-08T14:32:37;29.15;;;15.50;;
64842;SDS011;51310;52.198;5.422;2023-03-08T14:35:25;28.02;;;15.07;;
64842;SDS011;51310;52.198;5.422;2023-03-08T14:38:12;29.83;;;14.18;;
64842;SDS011;51310;52.198;5.422;2023-03-08T14:40:48;26.05;;;13.43;;
64842;SDS011;51310;52.198;5.422;2023-03-08T14:43:16;28.33;;;14.23;;
64842;SDS011;51310;52.198;5.422;2023-03-08T14:46:01;24.27;;;13.68;;
64842;SDS011;51310;52.198;5.422;2023-03-08T14:48:31;28.87;;;13.73;;
64842;SDS011;51310;52.198;5.422;2023-03-08T14:53:28;25.27;;;13.17;;
64842;SDS011;51310;52.198;5.422;2023-03-08T14:55:56;25.25;;;12.55;;
64842;SDS011;51310;52.198;5.422;2023-03-08T14:58:26;21.55;;;11.95;;
64842;SDS011;51310;52.198;5.422;2023-03-08T15:00:56;23.40;;;11.75;;
64842;SDS011;51310;52.198;5.422;2023-03-08T15:03:26;22.08;;;11.50;;
64842;SDS011;51310;52.198;5.422;2023-03-08T15:06:00;21.73;;;11.52;;
64842;SDS011;51310;52.198;5.422;2023-03-08T15:08:37;22.38;;;11.38;;
64842;SDS011;51310;52.198;5.422;2023-03-08T15:11:05;20.88;;;11.52;;
64842;SDS011;51310;52.198;5.422;2023-03-08T15:13:31;22.92;;;12.95;;
64842;SDS011;51310;52.198;5.422;2023-03-08T15:15:57;21.75;;;11.55;;
64842;SDS011;51310;52.198;5.422;2023-03-08T15:18:22;25.45;;;12.52;;
64842;SDS011;51310;52.198;5.422;2023-03-08T15:20:48;23.80;;;12.02;;
64842;SDS011;51310;52.198;5.422;2023-03-08T15:23:23;23.33;;;12.10;;
64842;SDS011;51310;52.198;5.422;2023-03-08T15:25:51;25.17;;;13.57;;
64842;SDS011;51310;52.198;5.422;2023-03-08T15:28:19;20.37;;;11.30;;
64842;SDS011;51310;52.198;5.422;2023-03-08T15:30:47;25.30;;;12.00;;
64842;SDS011;51310;52.198;5.422;2023-03-08T15:33:16;22.42;;;12.43;;
64842;SDS011;51310;52.198;5.422;2023-03-08T15:35:43;23.63;;;12.48;;
64842;SDS011;51310;52.198;5.422;2023-03-08T15:38:13;23.20;;;13.05;;
64842;SDS011;51310;52.198;5.422;2023-03-08T15:40:41;23.13;;;12.30;;
64842;SDS011;51310;52.198;5.422;2023-03-08T15:43:08;24.23;;;13.02;;
64842;SDS011;51310;52.198;5.422;2023-03-08T15:45:34;25.02;;;12.68;;
64842;SDS011;51310;52.198;5.422;2023-03-08T15:48:14;23.50;;;13.13;;
64842;SDS011;51310;52.198;5.422;2023-03-08T15:50:43;22.65;;;12.32;;
64842;SDS011;51310;52.198;5.422;2023-03-08T15:53:09;26.40;;;13.50;;
64842;SDS011;51310;52.198;5.422;2023-03-08T15:55:36;24.63;;;13.35;;
64842;SDS011;51310;52.198;5.422;2023-03-08T15:58:04;25.80;;;13.63;;
64842;SDS011;51310;52.198;5.422;2023-03-08T16:00:30;26.20;;;12.73;;
64842;SDS011;51310;52.198;5.422;2023-03-08T16:02:57;26.55;;;13.27;;
64842;SDS011;51310;52.198;5.422;2023-03-08T16:05:23;26.03;;;14.47;;